Hopkinton, New York
Current Conditions -  °F | °C
As of 6:53 PM on Monday 22 Dec 2014 (Local Time) from KMSS Reporting Station
Overcast Overcast  
Wind Chill: 11°   Ceiling: 3400
Heat Index: 23°   Visibility: 8mi
Dew Point: 17°   Wind: 13mph
Humidity: 78%   Direction: 60°ENE
Pressure: 30.28"   Gusts: NA
Location:  44.7195°N, 74.6501°W
Report Text: KMSS 222353Z AUTO 06011KT 8SM OVC034 M05/M08 A3028 RMK AO2 SLP262 T10501083 11044 21050 56006
Loading
Personal Weather Stations






























Interactive Weather Map New forecast layout! Learn more

10-Day Weather Forecast

Advertisements
Track Severe Weather on mobile